createdAt,value
2018-09-25T00:01:49.749Z,3.50
2018-09-25T00:05:19.198Z,3.40
2018-09-25T00:08:48.768Z,3.10
2018-09-25T00:12:18.323Z,4.10
2018-09-25T00:15:48.073Z,4.20
2018-09-25T00:19:17.650Z,4.97
2018-09-25T00:22:47.429Z,3.60
2018-09-25T00:26:17.043Z,3.90
2018-09-25T00:29:46.606Z,3.73
2018-09-25T00:33:16.160Z,3.40
2018-09-25T00:36:45.777Z,4.30
2018-09-25T00:40:15.358Z,3.77
2018-09-25T00:43:45.047Z,3.70
2018-09-25T00:47:14.603Z,3.93
2018-09-25T00:50:44.453Z,4.27
2018-09-25T00:54:14.199Z,3.60
2018-09-25T00:57:43.864Z,4.17
2018-09-25T01:01:13.473Z,3.63
2018-09-25T01:04:43.213Z,5.60
2018-09-25T01:08:12.845Z,3.90
2018-09-25T01:11:42.604Z,3.50
2018-09-25T01:15:12.159Z,4.63
2018-09-25T01:18:41.793Z,4.73
2018-09-25T01:22:11.540Z,4.67
2018-09-25T01:25:41.178Z,4.37
2018-09-25T01:29:10.875Z,4.60
2018-09-25T01:32:40.464Z,5.27
2018-09-25T01:36:10.114Z,6.03
2018-09-25T01:39:39.748Z,5.20
2018-09-25T01:43:09.643Z,4.60
2018-09-25T01:46:39.310Z,5.47
2018-09-25T01:50:08.859Z,5.40
2018-09-25T01:53:38.430Z,5.97
2018-09-25T01:57:08.041Z,7.03
2018-09-25T02:00:37.715Z,5.80
2018-09-25T02:04:07.336Z,5.30
2018-09-25T02:07:36.954Z,5.40
2018-09-25T02:11:06.607Z,5.63
2018-09-25T02:14:36.199Z,5.63
2018-09-25T02:18:05.913Z,7.10
2018-09-25T02:21:35.606Z,6.67
2018-09-25T02:25:05.180Z,6.33
2018-09-25T02:28:34.887Z,6.03
2018-09-25T02:32:04.658Z,6.13
2018-09-25T02:35:34.183Z,7.17
2018-09-25T02:39:03.818Z,6.63
2018-09-25T02:42:33.367Z,7.27
2018-09-25T02:46:02.860Z,7.67
2018-09-25T02:49:32.655Z,8.00
2018-09-25T02:53:02.217Z,7.53
2018-09-25T02:56:31.655Z,7.07
2018-09-25T03:00:01.591Z,7.53
2018-09-25T03:03:31.227Z,7.07
2018-09-25T03:07:00.955Z,7.00
2018-09-25T03:10:30.616Z,7.77
2018-09-25T03:14:00.273Z,7.50
2018-09-25T03:17:29.832Z,7.90
2018-09-25T03:20:59.711Z,8.10
2018-09-25T03:24:29.375Z,7.77
2018-09-25T03:27:58.969Z,8.20
2018-09-25T03:31:28.647Z,7.47
2018-09-25T03:34:58.203Z,8.87
2018-09-25T03:38:59.249Z,7.83
2018-09-25T03:42:28.826Z,8.27
2018-09-25T03:45:58.542Z,7.90
2018-09-25T03:49:28.193Z,8.23
2018-09-25T03:52:57.936Z,7.50
2018-09-25T03:56:27.618Z,8.80
2018-09-25T03:59:57.202Z,8.27
2018-09-25T04:03:26.761Z,9.73
2018-09-25T04:06:56.344Z,10.00
2018-09-25T04:10:25.984Z,9.17
2018-09-25T04:13:55.605Z,8.80
2018-09-25T04:17:25.210Z,10.20
2018-09-25T04:20:54.763Z,9.03
2018-09-25T04:24:24.268Z,8.57
2018-09-25T04:27:54.042Z,9.10
2018-09-25T04:31:23.801Z,9.03
2018-09-25T04:34:53.470Z,9.00
2018-09-25T04:38:23.319Z,9.13
2018-09-25T04:41:52.892Z,8.60
2018-09-25T04:45:22.630Z,9.40
2018-09-25T04:48:52.254Z,10.80
2018-09-25T04:52:22.021Z,9.23
2018-09-25T04:55:51.613Z,9.47
2018-09-25T04:59:21.412Z,9.33
2018-09-25T05:02:51.080Z,8.50
2018-09-25T05:06:20.769Z,9.43
2018-09-25T05:09:50.411Z,9.53
2018-09-25T05:13:20.170Z,10.43
2018-09-25T05:16:49.926Z,10.50
2018-09-25T05:20:19.706Z,10.27
2018-09-25T05:23:49.314Z,10.90
2018-09-25T05:27:18.903Z,9.20
2018-09-25T05:30:48.583Z,9.23
2018-09-25T05:34:18.049Z,9.00
2018-09-25T05:37:47.615Z,9.23
2018-09-25T05:41:17.092Z,11.33
2018-09-25T05:44:46.500Z,11.00
2018-09-25T05:48:16.406Z,9.63
2018-09-25T05:51:45.911Z,11.60
2018-09-25T05:55:15.540Z,10.33
2018-09-25T05:58:45.036Z,10.77
2018-09-25T06:02:14.721Z,12.30
2018-09-25T06:05:44.355Z,11.80
2018-09-25T06:09:14.812Z,11.53
2018-09-25T06:12:44.337Z,10.83
2018-09-25T06:16:13.853Z,12.73
2018-09-25T06:19:43.537Z,15.67
2018-09-25T06:23:13.107Z,17.83
2018-09-25T06:26:42.715Z,13.77
2018-09-25T06:30:12.833Z,15.27
2018-09-25T06:33:42.551Z,16.37
2018-09-25T06:37:12.299Z,17.80
2018-09-25T06:40:42.023Z,19.03
2018-09-25T06:44:11.616Z,16.70
2018-09-25T06:47:41.255Z,23.37
2018-09-25T06:51:10.884Z,24.83
2018-09-25T06:54:40.582Z,23.17
2018-09-25T06:58:10.282Z,21.43
2018-09-25T07:01:39.784Z,21.67
2018-09-25T07:05:09.520Z,23.93
2018-09-25T07:08:39.115Z,22.30
2018-09-25T07:12:08.609Z,22.37
2018-09-25T07:15:38.495Z,22.40
2018-09-25T07:19:08.072Z,22.73
2018-09-25T07:22:37.636Z,21.30
2018-09-25T07:26:07.440Z,22.77
2018-09-25T07:29:36.842Z,24.77
2018-09-25T07:33:06.438Z,23.50
2018-09-25T07:36:35.863Z,23.93
2018-09-25T07:40:05.474Z,23.37
2018-09-25T07:43:35.080Z,24.93
2018-09-25T07:47:04.681Z,22.20
2018-09-25T07:50:34.240Z,21.63
2018-09-25T07:54:03.806Z,22.83
2018-09-25T07:57:33.251Z,21.33
2018-09-25T08:01:02.845Z,19.20
2018-09-25T08:04:32.478Z,18.73
2018-09-25T08:08:02.068Z,15.13
2018-09-25T08:11:31.653Z,11.80
2018-09-25T08:15:01.495Z,12.93
2018-09-25T08:18:30.968Z,11.50
2018-09-25T08:22:00.654Z,9.67
2018-09-25T08:25:30.168Z,13.83
2018-09-25T08:28:59.752Z,13.70
2018-09-25T08:32:29.404Z,11.93
2018-09-25T08:35:58.907Z,11.70
2018-09-25T08:39:28.778Z,12.07
2018-09-25T08:42:58.200Z,14.50
2018-09-25T08:46:27.866Z,15.50
2018-09-25T08:50:04.198Z,12.70
2018-09-25T08:53:33.799Z,11.33
2018-09-25T08:57:03.367Z,10.53
2018-09-25T09:00:33.051Z,9.80
2018-09-25T09:04:02.648Z,9.77
2018-09-25T09:07:32.542Z,7.80
2018-09-25T09:11:02.128Z,7.30
2018-09-25T09:14:31.882Z,15.40
2018-09-25T09:18:01.505Z,15.57
2018-09-25T09:21:30.973Z,18.83
2018-09-25T09:25:00.534Z,23.12
2018-09-25T09:28:30.213Z,27.23
2018-09-25T09:31:59.902Z,27.93
2018-09-25T09:35:29.434Z,26.55
2018-09-25T09:38:59.062Z,28.35
2018-09-25T09:42:28.587Z,17.52
2018-09-25T09:45:58.059Z,25.65
2018-09-25T09:49:27.788Z,22.62
2018-09-25T09:52:57.408Z,27.90
2018-09-25T09:56:27.108Z,22.40
2018-09-25T09:59:56.625Z,25.62
2018-09-25T10:03:26.224Z,18.82
2018-09-25T10:06:55.893Z,20.32
2018-09-25T10:10:25.361Z,17.05
2018-09-25T10:13:54.825Z,17.20
2018-09-25T10:17:24.516Z,19.45
2018-09-25T10:20:54.101Z,15.28
2018-09-25T10:24:23.629Z,12.98
2018-09-25T10:27:53.402Z,10.35
2018-09-25T10:31:23.033Z,9.30
2018-09-25T10:34:52.467Z,11.43
2018-09-25T10:38:22.079Z,11.43
2018-09-25T10:41:51.535Z,10.05
2018-09-25T10:45:21.061Z,10.15
2018-09-25T10:48:50.620Z,8.35
2018-09-25T10:52:20.188Z,8.40
2018-09-25T10:55:49.791Z,9.38
2018-09-25T10:59:19.302Z,8.70
2018-09-25T11:02:49.114Z,7.65
2018-09-25T11:06:18.601Z,8.88
2018-09-25T11:09:48.306Z,7.37
2018-09-25T11:13:17.899Z,7.15
2018-09-25T11:16:47.571Z,6.40
2018-09-25T11:20:17.164Z,6.97
2018-09-25T11:23:46.870Z,6.70
2018-09-25T11:27:16.542Z,7.42
2018-09-25T11:30:46.067Z,8.28
2018-09-25T11:34:15.749Z,8.55
2018-09-25T11:37:45.525Z,8.55
2018-09-25T11:41:15.397Z,6.05
2018-09-25T11:44:45.151Z,7.37
2018-09-25T11:48:14.974Z,7.92
2018-09-25T11:51:44.501Z,6.83
2018-09-25T11:55:14.259Z,7.28
2018-09-25T11:58:43.674Z,8.58
2018-09-25T12:02:13.473Z,7.22
2018-09-25T12:05:43.038Z,7.45
2018-09-25T12:09:14.872Z,7.47
2018-09-25T12:12:44.723Z,8.73
2018-09-25T12:16:14.416Z,7.55
2018-09-25T12:19:44.173Z,5.80
2018-09-25T12:23:13.905Z,7.30
2018-09-25T12:26:44.102Z,6.15
2018-09-25T12:30:13.905Z,5.12
2018-09-25T12:33:43.594Z,7.80
2018-09-25T12:37:17.666Z,7.12
2018-09-25T12:40:47.318Z,7.08
2018-09-25T12:44:16.921Z,5.45
2018-09-25T12:47:46.447Z,6.62
2018-09-25T12:51:16.230Z,6.95
2018-09-25T12:54:45.798Z,6.47
2018-09-25T12:58:15.614Z,5.65
2018-09-25T13:01:45.179Z,4.75
2018-09-25T13:05:14.792Z,6.50
2018-09-25T13:08:44.382Z,5.05
2018-09-25T13:12:13.878Z,6.10
2018-09-25T13:15:43.656Z,6.28
2018-09-25T13:19:13.473Z,6.28
2018-09-25T13:22:43.246Z,5.72
2018-09-25T13:26:12.965Z,5.10
2018-09-25T13:29:42.706Z,5.45
2018-09-25T13:33:12.341Z,5.70
2018-09-25T13:36:42.037Z,6.42
2018-09-25T13:40:12.187Z,7.08
2018-09-25T13:43:41.685Z,6.08
2018-09-25T13:47:11.311Z,6.70
2018-09-25T13:50:41.089Z,6.10
2018-09-25T13:54:10.665Z,6.17
2018-09-25T13:57:40.231Z,6.62
2018-09-25T14:01:09.927Z,6.40
2018-09-25T14:04:39.453Z,5.00
2018-09-25T14:08:09.159Z,4.87
2018-09-25T14:11:38.971Z,4.50
2018-09-25T14:15:08.517Z,4.85
2018-09-25T14:18:38.092Z,4.65
2018-09-25T14:22:07.753Z,4.85
2018-09-25T14:25:37.380Z,5.05
2018-09-25T14:29:06.776Z,4.72
2018-09-25T14:32:36.527Z,4.42
2018-09-25T14:36:06.208Z,4.47
2018-09-25T14:39:35.907Z,3.80
2018-09-25T14:43:05.639Z,3.00
2018-09-25T14:46:35.195Z,2.85
2018-09-25T14:50:04.832Z,3.33
2018-09-25T14:53:34.595Z,3.10
2018-09-25T14:57:04.247Z,3.05
2018-09-25T15:00:33.931Z,2.52
2018-09-25T15:04:03.532Z,2.83
2018-09-25T15:07:33.214Z,3.27
2018-09-25T15:11:02.841Z,2.92
2018-09-25T15:14:32.598Z,2.50
2018-09-25T15:18:02.167Z,3.15
2018-09-25T15:21:31.932Z,3.02
2018-09-25T15:25:01.417Z,2.85
2018-09-25T15:28:30.944Z,2.27
2018-09-25T15:32:00.682Z,2.27
2018-09-25T15:35:30.253Z,2.80
2018-09-25T15:38:59.713Z,2.47
2018-09-25T15:42:29.334Z,2.02
2018-09-25T15:45:58.987Z,2.20
2018-09-25T15:49:28.457Z,2.05
2018-09-25T15:52:58.108Z,1.98
2018-09-25T16:04:34.129Z,2.52
2018-09-25T16:08:03.632Z,1.80
2018-09-25T16:11:33.197Z,2.25
2018-09-25T16:15:03.036Z,1.92
2018-09-25T16:18:32.549Z,2.37
2018-09-25T16:22:02.314Z,1.72
2018-09-25T16:25:31.828Z,2.00
2018-09-25T16:29:01.626Z,2.12
2018-09-25T16:32:31.184Z,1.90
2018-09-25T16:36:00.801Z,2.60
2018-09-25T16:39:29.794Z,2.25
2018-09-25T16:42:59.455Z,2.02
2018-09-25T16:46:29.145Z,2.40
2018-09-25T16:49:58.904Z,2.55
2018-09-25T16:53:28.531Z,2.52
2018-09-25T16:56:58.161Z,2.42
2018-09-25T17:00:27.665Z,2.15
2018-09-25T17:03:57.177Z,1.95
2018-09-25T17:07:26.735Z,2.33
2018-09-25T17:10:56.305Z,2.62
2018-09-25T17:14:25.954Z,2.90
2018-09-25T17:17:55.635Z,2.75
2018-09-25T17:21:25.353Z,2.55
2018-09-25T17:24:55.466Z,3.08
2018-09-25T17:28:25.162Z,2.50
2018-09-25T17:31:54.749Z,3.08
2018-09-25T17:35:24.520Z,3.27
2018-09-25T17:38:54.366Z,2.98
2018-09-25T17:42:24.012Z,4.30
2018-09-25T17:45:53.568Z,4.20
2018-09-25T17:49:23.198Z,4.15
2018-09-25T17:52:52.839Z,4.10
2018-09-25T17:56:22.249Z,4.70
2018-09-25T17:59:52.054Z,4.60
2018-09-25T18:03:21.543Z,5.47
2018-09-25T18:06:51.108Z,4.97
2018-09-25T18:10:20.628Z,6.27
2018-09-25T18:13:50.157Z,6.43
2018-09-25T18:17:20.000Z,8.93
2018-09-25T18:20:49.646Z,8.63
2018-09-25T18:24:19.366Z,8.70
2018-09-25T18:27:49.206Z,9.43
2018-09-25T18:31:18.608Z,8.93
2018-09-25T18:34:48.346Z,9.23
2018-09-25T18:38:17.964Z,9.60
2018-09-25T18:41:47.569Z,9.63
2018-09-25T18:45:17.271Z,8.73
2018-09-25T18:48:47.012Z,10.77
2018-09-25T18:52:17.027Z,9.40
2018-09-25T18:55:46.719Z,10.20
2018-09-25T18:59:16.316Z,10.60
2018-09-25T19:02:46.051Z,9.90
2018-09-25T19:06:15.563Z,10.03
2018-09-25T19:09:45.228Z,11.20
2018-09-25T19:13:14.862Z,9.53
2018-09-25T19:16:44.334Z,10.17
2018-09-25T19:20:14.061Z,10.20
2018-09-25T19:23:43.694Z,10.27
2018-09-25T19:27:13.381Z,9.80
2018-09-25T19:30:43.155Z,8.77
2018-09-25T19:34:13.006Z,9.23
2018-09-25T19:37:42.722Z,10.53
2018-09-25T19:41:13.444Z,8.70
2018-09-25T19:44:43.386Z,10.10
2018-09-25T19:48:12.996Z,9.23
2018-09-25T19:51:42.517Z,9.03
2018-09-25T19:55:12.190Z,9.07
2018-09-25T19:58:41.637Z,11.30
2018-09-25T20:02:11.487Z,9.40
2018-09-25T20:05:41.224Z,10.07
2018-09-25T20:09:13.607Z,10.70
2018-09-25T20:12:43.251Z,10.67
2018-09-25T20:16:12.919Z,10.83
2018-09-25T20:19:42.683Z,10.37
2018-09-25T20:23:12.306Z,10.20
2018-09-25T20:26:42.094Z,9.70
2018-09-25T20:30:11.734Z,9.73
2018-09-25T20:33:42.697Z,9.10
2018-09-25T20:37:12.610Z,10.40
2018-09-25T20:40:42.211Z,11.77
2018-09-25T20:44:12.392Z,9.83
2018-09-25T20:47:42.205Z,10.53
2018-09-25T20:51:12.040Z,10.23
2018-09-25T20:54:41.733Z,11.17
2018-09-25T20:58:11.426Z,10.70
2018-09-25T21:01:41.193Z,9.87
2018-09-25T21:05:10.628Z,10.40
2018-09-25T21:08:40.192Z,8.37
2018-09-25T21:12:09.723Z,5.87
2018-09-25T21:15:39.621Z,6.17
2018-09-25T21:19:09.120Z,5.43
2018-09-25T21:22:38.733Z,6.63
2018-09-25T21:26:08.442Z,6.03
2018-09-25T21:29:38.054Z,5.90
2018-09-25T21:33:07.554Z,5.47
2018-09-25T21:36:37.339Z,5.57
2018-09-25T21:40:07.094Z,5.20
2018-09-25T21:43:36.794Z,6.37
2018-09-25T21:47:06.571Z,7.10
2018-09-25T21:50:35.964Z,5.20
2018-09-25T21:54:05.665Z,5.83
2018-09-25T21:57:35.417Z,5.70
2018-09-25T22:01:05.196Z,5.40
2018-09-25T22:04:34.956Z,5.43
2018-09-25T22:08:04.768Z,5.50
2018-09-25T22:11:34.470Z,5.63
2018-09-25T22:15:04.728Z,6.23
2018-09-25T22:18:34.215Z,5.23
2018-09-25T22:22:03.886Z,5.00
2018-09-25T22:25:33.521Z,4.90
2018-09-25T22:29:03.207Z,5.20
2018-09-25T22:32:32.823Z,6.23
2018-09-25T22:36:02.494Z,6.10
2018-09-25T22:39:31.958Z,5.37
2018-09-25T22:43:01.739Z,6.13
2018-09-25T22:46:31.411Z,5.10
2018-09-25T22:50:01.227Z,4.50
2018-09-25T22:53:30.875Z,5.13
2018-09-25T22:57:00.699Z,5.43
2018-09-25T23:00:30.403Z,5.33
2018-09-25T23:04:00.044Z,4.90
2018-09-25T23:07:29.586Z,5.73
2018-09-25T23:10:59.267Z,5.20
2018-09-25T23:14:29.217Z,5.03
2018-09-25T23:17:58.899Z,6.60
2018-09-25T23:21:28.493Z,6.50
2018-09-25T23:24:58.324Z,7.17
2018-09-25T23:28:27.977Z,6.00
2018-09-25T23:31:57.421Z,7.17
2018-09-25T23:35:27.189Z,6.30
2018-09-25T23:38:56.930Z,7.60
2018-09-25T23:42:26.475Z,7.37
2018-09-25T23:45:56.247Z,6.90
2018-09-25T23:49:27.873Z,7.40
2018-09-25T23:52:59.415Z,5.93
2018-09-25T23:56:28.961Z,6.80
2018-09-25T23:59:59.363Z,7.43
